createdAt,value
2022-08-25T00:05:38.062Z,100964.25
2022-08-25T00:08:51.557Z,100962.00
2022-08-25T00:14:26.565Z,100966.66
2022-08-25T00:16:58.673Z,100956.47
2022-08-25T00:19:33.699Z,100957.16
2022-08-25T00:22:20.955Z,100963.41
2022-08-25T00:24:52.387Z,100960.13
2022-08-25T00:27:36.188Z,100967.22
2022-08-25T00:30:30.958Z,100962.84
2022-08-25T00:33:05.475Z,100973.72
2022-08-25T00:35:39.996Z,100971.19
2022-08-25T00:39:04.524Z,100983.19
2022-08-25T00:44:18.641Z,100974.72
2022-08-25T00:48:56.965Z,100976.13
2022-08-25T01:02:31.344Z,100990.41
2022-08-25T01:16:00.534Z,101001.91
2022-08-25T01:22:01.700Z,101013.59
2022-08-25T01:24:44.652Z,101015.03
2022-08-25T01:31:57.786Z,101006.75
2022-08-25T01:34:57.749Z,101025.75
2022-08-25T01:44:58.068Z,101018.91
2022-08-25T01:50:10.969Z,101029.16
2022-08-25T01:52:57.849Z,101033.25
2022-08-25T01:55:29.373Z,101029.13
2022-08-25T01:57:59.938Z,101038.19
2022-08-25T02:01:06.224Z,101031.84
2022-08-25T02:04:01.133Z,101029.94
2022-08-25T02:07:01.438Z,101036.00
2022-08-25T02:09:29.967Z,101033.84
2022-08-25T02:11:58.421Z,101036.00
2022-08-25T02:17:16.764Z,101029.56
2022-08-25T02:20:06.886Z,101037.38
2022-08-25T02:23:00.237Z,101040.31
2022-08-25T02:28:59.476Z,101043.44
2022-08-25T02:31:48.193Z,101049.03
2022-08-25T02:34:16.761Z,101043.34
2022-08-25T02:36:54.884Z,101047.22
2022-08-25T02:39:31.104Z,101054.72
2022-08-25T02:42:00.849Z,101051.69
2022-08-25T02:44:29.173Z,101058.13
2022-08-25T02:46:58.158Z,101064.56
2022-08-25T02:49:29.820Z,101064.78
2022-08-25T02:52:01.226Z,101072.34
2022-08-25T02:54:30.424Z,101064.53
2022-08-25T02:56:58.811Z,101077.28
2022-08-25T02:59:28.202Z,101080.31
2022-08-25T03:01:59.650Z,101085.75
2022-08-25T03:04:32.216Z,101081.59
2022-08-25T03:07:00.553Z,101091.41
2022-08-25T03:09:28.988Z,101088.97
2022-08-25T03:12:01.604Z,101098.81
2022-08-25T03:14:29.821Z,101089.09
2022-08-25T03:17:03.182Z,101096.16
2022-08-25T03:19:48.136Z,101103.44
2022-08-25T03:22:26.523Z,101104.63
2022-08-25T03:25:28.232Z,101104.75
2022-08-25T03:27:59.352Z,101115.97
2022-08-25T03:30:31.571Z,101116.97
2022-08-25T03:32:59.865Z,101118.75
2022-08-25T03:35:31.578Z,101130.44
2022-08-25T03:38:01.381Z,101128.84
2022-08-25T03:40:29.959Z,101141.34
2022-08-25T03:43:01.076Z,101139.53
2022-08-25T03:45:29.444Z,101139.53
2022-08-25T03:47:58.202Z,101137.69
2022-08-25T03:50:27.382Z,101137.94
2022-08-25T03:53:02.667Z,101140.72
2022-08-25T03:55:30.946Z,101148.13
2022-08-25T03:58:00.957Z,101150.78
2022-08-25T04:00:32.295Z,101158.03
2022-08-25T04:03:00.175Z,101156.31
2022-08-25T04:05:28.777Z,101151.84
2022-08-25T04:08:05.436Z,101154.41
2022-08-25T04:10:34.710Z,101153.66
2022-08-25T04:13:05.442Z,101157.19
2022-08-25T04:15:36.212Z,101152.69
2022-08-25T04:18:04.956Z,101155.25
2022-08-25T04:20:33.359Z,101159.75
2022-08-25T04:23:02.198Z,101169.59
2022-08-25T04:25:30.543Z,101171.38
2022-08-25T04:27:59.216Z,101171.50
2022-08-25T04:30:29.841Z,101179.41
2022-08-25T04:32:58.642Z,101177.69
2022-08-25T04:35:29.712Z,101175.13
2022-08-25T04:38:13.528Z,101169.78
2022-08-25T04:40:47.837Z,101183.25
2022-08-25T04:43:16.534Z,101173.56
2022-08-25T04:45:57.297Z,101184.25
2022-08-25T04:48:31.203Z,101184.25
2022-08-25T04:51:02.415Z,101175.34
2022-08-25T04:53:30.628Z,101186.91
2022-08-25T04:56:23.781Z,101187.88
2022-08-25T05:02:29.443Z,101196.72
2022-08-25T05:04:58.481Z,101205.84
2022-08-25T05:07:29.813Z,101207.63
2022-08-25T05:09:57.934Z,101211.47
2022-08-25T05:12:29.513Z,101203.47
2022-08-25T05:15:30.306Z,101207.97
2022-08-25T05:18:00.944Z,101205.28
2022-08-25T05:20:32.247Z,101212.34
2022-08-25T05:23:00.499Z,101211.59
2022-08-25T05:25:29.990Z,101210.63
2022-08-25T05:27:58.515Z,101215.97
2022-08-25T05:30:32.754Z,101224.72
2022-08-25T05:33:16.433Z,101225.59
2022-08-25T05:35:46.359Z,101226.66
2022-08-25T05:38:35.948Z,101223.97
2022-08-25T05:41:09.361Z,101224.94
2022-08-25T05:43:40.941Z,101225.69
2022-08-25T05:46:34.138Z,101222.81
2022-08-25T05:49:28.438Z,101220.88
2022-08-25T05:52:18.225Z,101231.53
2022-08-25T05:54:54.905Z,101230.59
2022-08-25T05:57:28.622Z,101225.97
2022-08-25T05:59:56.861Z,101226.97
2022-08-25T06:02:48.063Z,101233.16
2022-08-25T06:05:27.627Z,101234.97
2022-08-25T06:08:00.904Z,101239.56
2022-08-25T06:10:32.337Z,101235.94
2022-08-25T06:13:08.885Z,101243.84
2022-08-25T06:15:37.771Z,101235.81
2022-08-25T06:18:06.642Z,101236.66
2022-08-25T06:20:35.007Z,101246.38
2022-08-25T06:23:10.487Z,101243.00
2022-08-25T06:25:38.748Z,101249.19
2022-08-25T06:28:07.458Z,101247.47
2022-08-25T06:30:35.797Z,101243.72
2022-08-25T06:33:11.937Z,101251.72
2022-08-25T06:35:46.635Z,101261.47
2022-08-25T06:38:19.834Z,101259.63
2022-08-25T06:40:54.793Z,101264.03
2022-08-25T06:43:28.470Z,101271.09
2022-08-25T06:46:01.114Z,101268.28
2022-08-25T06:48:29.561Z,101262.09
2022-08-25T06:51:01.009Z,101269.13
2022-08-25T06:53:29.413Z,101255.91
2022-08-25T06:56:08.724Z,101260.28
2022-08-25T06:58:37.781Z,101252.47
2022-08-25T07:01:33.035Z,101252.47
2022-08-25T07:04:12.903Z,101257.19
2022-08-25T07:06:42.267Z,101271.50
2022-08-25T07:09:15.592Z,101266.81
2022-08-25T07:11:45.375Z,101268.28
2022-08-25T07:17:00.569Z,101267.53
2022-08-25T07:19:32.209Z,101278.88
2022-08-25T07:22:02.149Z,101275.31
2022-08-25T07:24:30.408Z,101276.09
2022-08-25T07:27:03.518Z,101278.75
2022-08-25T07:29:33.656Z,101272.44
2022-08-25T07:32:06.441Z,101274.25
2022-08-25T07:34:58.868Z,101276.94
2022-08-25T07:37:48.054Z,101277.88
2022-08-25T07:40:22.609Z,101276.09
2022-08-25T07:44:39.042Z,101276.31
2022-08-25T07:46:01.598Z,101275.78
2022-08-25T07:48:32.935Z,101277.38
2022-08-25T07:51:06.341Z,101281.09
2022-08-25T07:53:36.918Z,101281.00
2022-08-25T07:56:26.057Z,101281.09
2022-08-25T07:58:59.724Z,101282.72
2022-08-25T08:01:30.608Z,101289.66
2022-08-25T08:04:03.652Z,101284.09
2022-08-25T08:06:32.133Z,101286.56
2022-08-25T08:09:01.238Z,101290.81
2022-08-25T08:11:34.760Z,101289.09
2022-08-25T08:14:13.816Z,101291.56
2022-08-25T08:17:00.355Z,101297.53
2022-08-25T08:19:31.787Z,101288.56
2022-08-25T08:22:14.717Z,101289.72
2022-08-25T08:24:54.787Z,101293.28
2022-08-25T08:27:26.139Z,101302.78
2022-08-25T08:30:04.928Z,101302.34
2022-08-25T08:32:59.902Z,101302.22
2022-08-25T08:35:30.751Z,101293.97
2022-08-25T08:38:01.993Z,101289.38
2022-08-25T08:40:32.911Z,101289.59
2022-08-25T08:43:03.312Z,101281.69
2022-08-25T08:45:40.157Z,101281.69
2022-08-25T08:48:38.151Z,101281.81
2022-08-25T08:51:33.361Z,101287.16
2022-08-25T08:54:30.478Z,101278.06
2022-08-25T08:57:17.806Z,101274.44
2022-08-25T09:03:22.438Z,101281.88
2022-08-25T09:06:00.084Z,101288.06
2022-08-25T09:08:31.862Z,101294.28
2022-08-25T09:11:16.355Z,101287.22
2022-08-25T09:14:05.135Z,101290.56
2022-08-25T09:17:30.834Z,101287.88
2022-08-25T09:20:39.603Z,101284.44
2022-08-25T09:23:28.267Z,101290.00
2022-08-25T09:26:21.020Z,101297.16
2022-08-25T09:29:03.182Z,101302.72
2022-08-25T09:31:45.947Z,101311.84
2022-08-25T09:34:23.300Z,101303.06
2022-08-25T09:37:01.275Z,101297.50
2022-08-25T09:39:33.552Z,101296.66
2022-08-25T09:42:01.829Z,101299.09
2022-08-25T09:44:42.275Z,101298.25
2022-08-25T09:47:19.827Z,101301.03
2022-08-25T09:50:01.799Z,101295.81
2022-08-25T09:52:41.783Z,101300.28
2022-08-25T09:55:35.358Z,101302.09
2022-08-25T09:58:17.102Z,101312.25
2022-08-25T10:00:48.217Z,101311.63
2022-08-25T10:03:36.454Z,101317.81
2022-08-25T10:06:13.298Z,101315.38
2022-08-25T10:08:44.803Z,101320.84
2022-08-25T10:11:37.267Z,101325.09
2022-08-25T10:14:30.385Z,101328.63
2022-08-25T10:17:30.064Z,101328.50
2022-08-25T10:20:13.258Z,101327.66
2022-08-25T10:22:43.775Z,101332.91
2022-08-25T10:25:22.343Z,101334.41
2022-08-25T10:28:18.474Z,101336.09
2022-08-25T10:31:16.217Z,101330.72
2022-08-25T10:34:04.959Z,101327.22
2022-08-25T10:36:47.101Z,101335.25
2022-08-25T10:39:34.261Z,101332.78
2022-08-25T10:42:42.762Z,101330.34
2022-08-25T10:46:01.624Z,101337.41
2022-08-25T10:52:10.318Z,101349.03
2022-08-25T10:54:59.160Z,101354.38
2022-08-25T10:57:59.939Z,101348.81
2022-08-25T11:00:40.406Z,101342.75
2022-08-25T11:03:39.344Z,101354.91
2022-08-25T11:06:24.989Z,101355.78
2022-08-25T11:09:01.832Z,101352.44
2022-08-25T11:11:43.886Z,101354.06
2022-08-25T11:14:34.724Z,101354.16
2022-08-25T11:17:41.937Z,101353.09
2022-08-25T11:20:26.802Z,101355.13
2022-08-25T11:24:00.468Z,101351.50
2022-08-25T11:26:38.885Z,101355.22
2022-08-25T11:30:07.882Z,101348.81
2022-08-25T11:32:57.770Z,101349.78
2022-08-25T11:35:39.418Z,101349.66
2022-08-25T11:38:30.075Z,101348.81
2022-08-25T11:41:32.326Z,101359.50
2022-08-25T11:44:11.569Z,101344.44
2022-08-25T11:47:01.355Z,101356.47
2022-08-25T11:49:58.004Z,101361.16
2022-08-25T11:52:44.592Z,101360.91
2022-08-25T11:56:05.186Z,101361.31
2022-08-25T11:59:06.159Z,101367.16
2022-08-25T12:02:03.314Z,101361.28
2022-08-25T12:05:00.979Z,101375.38
2022-08-25T12:08:09.185Z,101379.78
2022-08-25T12:11:10.468Z,101370.16
2022-08-25T12:13:43.844Z,101375.88
2022-08-25T12:16:39.355Z,101369.28
2022-08-25T12:19:29.130Z,101383.03
2022-08-25T12:22:03.950Z,101376.38
2022-08-25T12:24:47.819Z,101372.44
2022-08-25T12:27:33.842Z,101382.59
2022-08-25T12:30:26.279Z,101382.94
2022-08-25T12:33:26.547Z,101387.81
2022-08-25T12:36:11.209Z,101392.84
2022-08-25T12:38:52.105Z,101394.13
2022-08-25T12:41:33.683Z,101397.75
2022-08-25T12:44:35.739Z,101393.59
2022-08-25T12:47:43.035Z,101399.97
2022-08-25T12:50:41.124Z,101394.75
2022-08-25T12:53:29.059Z,101405.00
2022-08-25T12:56:03.887Z,101403.50
2022-08-25T12:59:00.143Z,101406.91
2022-08-25T13:01:38.669Z,101415.03
2022-08-25T13:04:15.967Z,101418.63
2022-08-25T13:07:15.473Z,101416.28
2022-08-25T13:10:02.777Z,101421.41
2022-08-25T13:12:53.008Z,101422.78
2022-08-25T13:15:38.308Z,101410.28
2022-08-25T13:18:32.661Z,101427.34
2022-08-25T13:21:57.318Z,101432.88
2022-08-25T13:24:40.255Z,101434.13
2022-08-25T13:27:41.645Z,101429.00
2022-08-25T13:30:38.042Z,101446.06
2022-08-25T13:33:34.356Z,101448.72
2022-08-25T13:36:34.775Z,101453.31
2022-08-25T13:39:58.814Z,101462.06
2022-08-25T13:42:30.810Z,101469.50
2022-08-25T13:45:31.793Z,101468.53
2022-08-25T13:51:35.487Z,101479.59
2022-08-25T13:52:57.257Z,101476.91
2022-08-25T13:54:32.437Z,101479.78
2022-08-25T13:57:34.710Z,101489.41
2022-08-25T14:01:00.734Z,101500.63
2022-08-25T14:06:35.081Z,101512.09
2022-08-25T14:12:00.290Z,101511.91
2022-08-25T14:14:33.796Z,101504.94
2022-08-25T14:17:16.338Z,101510.19
2022-08-25T14:19:50.541Z,101522.84
2022-08-25T14:22:21.917Z,101530.94
2022-08-25T14:25:02.509Z,101528.19
2022-08-25T14:27:38.913Z,101537.75
2022-08-25T14:30:29.241Z,101541.91
2022-08-25T14:32:59.517Z,101539.91
2022-08-25T14:35:28.362Z,101542.28
2022-08-25T14:38:00.103Z,101549.22
2022-08-25T15:32:13.796Z,101610.38
2022-08-25T15:59:59.184Z,101639.16
2022-08-25T16:03:02.210Z,101641.63
2022-08-25T16:12:46.845Z,101631.44
2022-08-25T16:16:09.055Z,101635.22
2022-08-25T16:22:04.459Z,101634.34
2022-08-25T16:25:09.268Z,101638.63
2022-08-25T16:36:30.955Z,101650.00
2022-08-25T16:41:59.390Z,101655.34
2022-08-25T16:48:03.884Z,101654.28
2022-08-25T16:52:02.060Z,101661.78
2022-08-25T16:58:06.743Z,101665.44
2022-08-25T17:01:11.644Z,101663.88
2022-08-25T17:04:01.441Z,101664.25
2022-08-25T17:06:31.592Z,101662.91
2022-08-25T17:10:12.572Z,101677.59
2022-08-25T17:12:35.188Z,101671.16
2022-08-25T17:15:06.750Z,101673.66
2022-08-25T17:17:37.243Z,101677.16
2022-08-25T17:23:30.329Z,101662.94
2022-08-25T17:26:05.094Z,101673.66
2022-08-25T17:31:31.247Z,101674.50
2022-08-25T17:37:33.608Z,101674.94
2022-08-25T17:40:34.653Z,101676.13
2022-08-25T17:58:35.972Z,101687.28
2022-08-25T18:08:35.074Z,101691.25
2022-08-25T18:11:36.490Z,101714.59
2022-08-25T18:14:30.366Z,101694.47
2022-08-25T18:17:33.661Z,101698.09
2022-08-25T18:26:36.062Z,101694.59
2022-08-25T18:29:31.723Z,101695.88
2022-08-25T18:32:12.675Z,101703.44
2022-08-25T18:35:29.072Z,101702.88
2022-08-25T18:45:35.616Z,101695.59
2022-08-25T18:51:33.094Z,101695.94
2022-08-25T18:54:02.813Z,101707.50
2022-08-25T18:56:32.532Z,101702.16
2022-08-25T18:59:13.503Z,101702.78
2022-08-25T19:02:32.214Z,101702.56
2022-08-25T19:05:04.842Z,101714.25
2022-08-25T19:10:36.969Z,101696.44
2022-08-25T19:17:27.591Z,101688.72
2022-08-25T19:29:32.559Z,101672.03
2022-08-25T19:32:29.652Z,101674.97
2022-08-25T19:35:33.035Z,101673.28
2022-08-25T19:38:35.583Z,101666.50
2022-08-25T20:01:30.523Z,101632.91
2022-08-25T20:19:34.129Z,101644.34
2022-08-25T20:22:04.794Z,101639.09
2022-08-25T20:28:29.069Z,101634.75
2022-08-25T20:34:29.213Z,101642.28
2022-08-25T20:40:31.635Z,101633.22
2022-08-25T20:43:32.938Z,101645.06
2022-08-25T20:46:29.380Z,101635.13
2022-08-25T20:49:28.869Z,101633.53
2022-08-25T20:52:42.416Z,101617.69
2022-08-25T20:55:30.125Z,101621.13
2022-08-25T20:58:32.737Z,101617.91
2022-08-25T21:01:33.608Z,101630.94
2022-08-25T21:07:35.661Z,101599.78
2022-08-25T21:13:56.484Z,101595.38
2022-08-25T21:17:06.382Z,101594.31
2022-08-25T21:19:38.555Z,101606.16
2022-08-25T21:22:33.289Z,101589.34
2022-08-25T21:28:36.863Z,101575.00
2022-08-25T21:31:36.533Z,101579.63
2022-08-25T21:38:34.130Z,101560.22
2022-08-25T21:41:40.105Z,101548.03
2022-08-25T21:44:32.182Z,101559.25
2022-08-25T21:53:51.375Z,101539.47
2022-08-25T21:56:41.388Z,101530.50
2022-08-25T23:36:42.319Z,101415.00
2022-08-25T23:50:04.599Z,101412.88
